シンガポール/チャンギ の空港の天気 - METARとTAF

シンガポール・チャンギ国際空港 ( WSSS / SIN ) - シンガポール Changi
飛行場実況気象(Metar)
観測時間10/20 02:00 SGT (10/19 18:00 UTC)
風向・風速西北西 2m/s
視程10km以上
天気現象
少しの雲 雲底高度 550m
全天の8割程度の雲 雲底高度 9140m
気温28℃
湿度74%
気圧1012hPa
METARWSSS 191800Z 29003KT 260V320 9999 FEW018 BKN300 28/23 Q1012 NOSIG
過去の天気等 Google飛行場航空写真 Wunderground天気予報

過去48時間のMETAR

飛行場予報(TAF)
発表時間: 10/20 01:00 SGT (10/19 17:00 UTC)
予報対象時間: 20日2時 SGT ~ 21日8時 SGT
風向・風速不定 3m/s
視程10km以上
少しの積乱雲 雲底高度 550m
全天の4割程度の雲 雲底高度 610m
20日8時 SGT ~ 20日12時 SGT に一時的に
風向・風速南南西 8m/s 瞬間風速 13m/s
視程3000m
天気現象雷雨
少しの積乱雲 雲底高度 370m
全天の8割程度の雲 雲底高度 460m
TAF WSSS 191700Z 1918/2100 VRB05KT 9999 FEW018CB SCT020
TEMPO 2000/2004 20015G25KT 3000 TSRA FEW012CB BKN015